createdAt,value
2022-09-28T00:00:07.704Z,46.0
2022-09-28T00:01:20.396Z,46.0
2022-09-28T00:02:33.769Z,46.0
2022-09-28T00:03:37.585Z,46.0
2022-09-28T00:04:51.224Z,46.0
2022-09-28T00:05:53.906Z,46.0
2022-09-28T00:07:07.245Z,46.0
2022-09-28T00:08:19.863Z,46.0
2022-09-28T00:09:36.167Z,46.0
2022-09-28T00:10:39.120Z,46.0
2022-09-28T00:11:52.738Z,45.9
2022-09-28T00:12:55.439Z,46.0
2022-09-28T00:14:08.717Z,46.0
2022-09-28T00:15:21.345Z,46.0
2022-09-28T00:16:34.805Z,45.9
2022-09-28T00:17:37.628Z,46.0
2022-09-28T00:18:51.505Z,46.0
2022-09-28T00:19:54.369Z,46.0
2022-09-28T00:21:07.711Z,46.0
2022-09-28T00:22:20.351Z,46.0
2022-09-28T00:23:33.727Z,46.0
2022-09-28T00:24:36.429Z,46.0
2022-09-28T00:25:49.720Z,46.0
2022-09-28T00:27:02.330Z,46.0
2022-09-28T00:28:05.742Z,46.0
2022-09-28T00:29:18.526Z,46.0
2022-09-28T00:30:32.210Z,46.0
2022-09-28T00:31:34.931Z,46.0
2022-09-28T00:32:48.740Z,46.0
2022-09-28T00:34:01.548Z,46.0
2022-09-28T00:35:05.242Z,46.0
2022-09-28T00:36:17.891Z,46.0
2022-09-28T00:37:31.217Z,46.0
2022-09-28T00:38:43.850Z,46.0
2022-09-28T00:39:47.700Z,46.0
2022-09-28T00:41:00.402Z,46.0
2022-09-28T00:42:13.712Z,46.0
2022-09-28T00:43:16.397Z,46.1
2022-09-28T00:44:29.712Z,46.0
2022-09-28T00:45:42.398Z,46.0
2022-09-28T00:46:46.225Z,46.0
2022-09-28T00:47:58.848Z,46.1
2022-09-28T00:49:12.254Z,46.0
2022-09-28T00:50:14.927Z,46.1
2022-09-28T00:51:28.225Z,46.1
2022-09-28T00:52:40.961Z,46.0
2022-09-28T00:53:54.210Z,46.0
2022-09-28T00:54:56.950Z,46.0
2022-09-28T00:56:10.269Z,46.0
2022-09-28T00:57:22.925Z,46.0
2022-09-28T00:58:26.724Z,46.1
2022-09-28T00:59:39.369Z,46.1
2022-09-28T01:00:52.875Z,46.1
2022-09-28T01:01:55.723Z,46.1
2022-09-28T01:03:09.246Z,46.1
2022-09-28T01:04:21.876Z,46.1
2022-09-28T01:05:25.217Z,46.1
2022-09-28T01:06:37.864Z,46.1
2022-09-28T01:07:51.258Z,46.0
2022-09-28T01:09:04.004Z,46.1
2022-09-28T01:10:07.722Z,46.0
2022-09-28T01:11:20.356Z,46.1
2022-09-28T01:12:33.747Z,46.1
2022-09-28T01:13:36.432Z,46.1
2022-09-28T01:14:49.738Z,46.1
2022-09-28T01:16:02.446Z,46.1
2022-09-28T01:17:05.737Z,46.1
2022-09-28T01:18:18.371Z,46.1
2022-09-28T01:19:31.750Z,46.1
2022-09-28T01:20:44.382Z,46.1
2022-09-28T01:21:47.746Z,46.1
2022-09-28T01:23:00.382Z,46.1
2022-09-28T01:24:15.684Z,46.1
2022-09-28T01:25:18.422Z,46.1
2022-09-28T01:26:30.226Z,46.1
2022-09-28T01:27:42.864Z,46.1
2022-09-28T01:28:46.268Z,46.0
2022-09-28T01:29:58.929Z,46.1
2022-09-28T01:31:12.287Z,46.1
2022-09-28T01:32:25.055Z,46.1
2022-09-28T01:33:28.769Z,46.1
2022-09-28T01:34:41.403Z,46.1
2022-09-28T01:35:54.765Z,46.1
2022-09-28T01:36:57.451Z,46.2
2022-09-28T01:38:11.225Z,46.1
2022-09-28T01:39:23.885Z,46.1
2022-09-28T01:40:27.278Z,46.1
2022-09-28T01:41:40.079Z,46.1
2022-09-28T01:42:53.743Z,46.1
2022-09-28T01:43:56.458Z,46.1
2022-09-28T01:45:09.749Z,46.1
2022-09-28T01:46:22.357Z,46.1
2022-09-28T01:47:35.725Z,46.1
2022-09-28T01:48:38.428Z,46.1
2022-09-28T01:49:52.271Z,46.1
2022-09-28T01:51:04.914Z,46.1
2022-09-28T01:52:08.263Z,46.1
2022-09-28T01:53:20.955Z,46.1
2022-09-28T01:54:34.274Z,46.2
2022-09-28T01:55:36.992Z,46.2
2022-09-28T01:56:50.300Z,46.2
2022-09-28T01:58:02.947Z,46.1
2022-09-28T01:59:06.257Z,46.2
2022-09-28T02:02:52.267Z,46.2
2022-09-28T02:03:55.947Z,46.2
2022-09-28T02:04:59.323Z,46.2
2022-09-28T02:06:11.988Z,46.1
2022-09-28T02:07:25.327Z,46.2
2022-09-28T02:08:28.070Z,46.1
2022-09-28T02:09:41.844Z,46.1
2022-09-28T02:10:54.553Z,46.1
2022-09-28T02:11:57.794Z,46.2
2022-09-28T02:13:10.485Z,46.2
2022-09-28T02:14:23.820Z,46.2
2022-09-28T02:15:26.558Z,46.2
2022-09-28T02:16:39.895Z,46.3
2022-09-28T02:17:52.597Z,46.3
2022-09-28T02:19:06.314Z,46.3
2022-09-28T02:20:09.010Z,46.3
2022-09-28T02:21:31.843Z,46.3
2022-09-28T02:22:34.577Z,46.4
2022-09-28T02:23:38.313Z,46.4
2022-09-28T02:24:50.960Z,46.3
2022-09-28T02:26:04.302Z,46.3
2022-09-28T02:27:07.087Z,46.3
2022-09-28T02:28:20.349Z,46.3
2022-09-28T02:29:32.992Z,46.2
2022-09-28T02:30:46.352Z,46.3
2022-09-28T02:31:49.076Z,46.3
2022-09-28T02:33:02.811Z,46.2
2022-09-28T02:34:15.469Z,46.2
2022-09-28T02:35:18.817Z,46.3
2022-09-28T02:36:31.439Z,46.3
2022-09-28T02:37:44.840Z,46.2
2022-09-28T02:38:47.542Z,46.2
2022-09-28T02:40:00.825Z,46.2
2022-09-28T02:41:13.573Z,46.2
2022-09-28T02:42:27.327Z,46.2
2022-09-28T02:43:30.205Z,46.2
2022-09-28T02:44:43.843Z,46.1
2022-09-28T02:45:56.642Z,46.1
2022-09-28T02:47:00.324Z,46.1
2022-09-28T02:48:12.984Z,46.1
2022-09-28T02:49:26.346Z,46.1
2022-09-28T02:50:29.059Z,46.1
2022-09-28T02:51:42.335Z,46.2
2022-09-28T02:52:54.958Z,46.1
2022-09-28T02:54:07.810Z,46.1
2022-09-28T02:55:10.473Z,46.1
2022-09-28T02:56:23.828Z,46.2
2022-09-28T02:57:36.415Z,46.1
2022-09-28T02:58:40.356Z,46.1
2022-09-28T02:59:52.939Z,46.1
2022-09-28T03:01:06.425Z,46.1
2022-09-28T03:02:09.370Z,46.1
2022-09-28T03:03:22.862Z,46.0
2022-09-28T03:04:35.461Z,46.1
2022-09-28T03:05:38.814Z,46.1
2022-09-28T03:06:51.422Z,46.1
2022-09-28T03:08:04.827Z,46.1
2022-09-28T03:09:17.505Z,46.1
2022-09-28T03:10:21.346Z,46.1
2022-09-28T03:11:34.204Z,46.1
2022-09-28T03:12:56.847Z,46.1
2022-09-28T03:13:49.605Z,46.1
2022-09-28T03:15:03.353Z,46.1
2022-09-28T03:16:16.012Z,46.1
2022-09-28T03:17:19.338Z,46.1
2022-09-28T03:18:51.602Z,46.1
2022-09-28T03:19:45.348Z,46.1
2022-09-28T03:20:48.016Z,46.0
2022-09-28T03:22:01.350Z,46.0
2022-09-28T03:23:24.666Z,46.0
2022-09-28T15:03:22.159Z,34.1
2022-09-28T15:04:25.363Z,34.6
2022-09-28T15:05:39.525Z,34.3
2022-09-28T15:06:42.008Z,34.6
2022-09-28T15:07:55.034Z,34.7
2022-09-28T15:09:08.297Z,34.6
2022-09-28T15:10:11.964Z,34.7
2022-09-28T15:11:24.013Z,34.8
2022-09-28T15:12:36.976Z,34.8
2022-09-28T15:13:39.246Z,35.3
2022-09-28T15:14:51.998Z,35.2
2022-09-28T15:16:04.234Z,35.4
2022-09-28T15:17:17.475Z,35.2
2022-09-28T15:18:19.773Z,35.4
2022-09-28T15:19:32.476Z,35.0
2022-09-28T15:20:44.671Z,35.5
2022-09-28T15:21:57.511Z,35.8
2022-09-28T15:22:59.814Z,35.9
2022-09-28T15:24:14.049Z,36.2
2022-09-28T15:25:26.364Z,36.2
2022-09-28T15:26:29.490Z,36.3
2022-09-28T15:27:41.626Z,36.3
2022-09-28T15:28:54.467Z,36.3
2022-09-28T15:30:06.627Z,36.3
2022-09-28T15:31:09.572Z,36.2
2022-09-28T15:32:21.797Z,36.2
2022-09-28T15:33:34.497Z,36.1
2022-09-28T15:34:36.763Z,36.1
2022-09-28T15:35:49.486Z,36.1
2022-09-28T15:37:01.597Z,36.0
2022-09-28T15:38:14.476Z,36.0
2022-09-28T15:39:16.663Z,36.0
2022-09-28T15:40:29.552Z,36.0
2022-09-28T15:41:41.656Z,36.0
2022-09-28T15:42:58.474Z,36.0
2022-09-28T15:44:01.763Z,36.0
2022-09-28T15:45:14.503Z,36.0
2022-09-28T15:46:16.735Z,36.0
2022-09-28T15:47:29.492Z,36.0
2022-09-28T15:48:41.595Z,36.0
2022-09-28T15:49:54.505Z,36.0
2022-09-28T15:50:56.910Z,36.0
2022-09-28T15:52:10.010Z,36.0
2022-09-28T15:53:22.095Z,36.0
2022-09-28T15:54:35.063Z,36.0
2022-09-28T15:55:37.262Z,36.0
2022-09-28T15:56:50.003Z,36.0
2022-09-28T15:58:02.138Z,36.1
2022-09-28T15:59:15.006Z,36.1
2022-09-28T16:00:17.289Z,36.1
2022-09-28T16:01:30.063Z,36.1
2022-09-28T16:02:42.374Z,36.1
2022-09-28T16:03:55.489Z,36.2
2022-09-28T16:04:57.781Z,36.1
2022-09-28T16:06:10.506Z,36.2
2022-09-28T16:07:22.654Z,36.2
2022-09-28T16:08:25.529Z,36.2
2022-09-28T16:09:41.031Z,36.2
2022-09-28T16:10:54.001Z,36.2
2022-09-28T16:11:56.296Z,36.3
2022-09-28T16:13:28.490Z,36.2
2022-09-28T16:14:20.902Z,36.3
2022-09-28T16:15:34.027Z,36.3
2022-09-28T16:16:36.346Z,36.3
2022-09-28T16:17:49.531Z,36.3
2022-09-28T16:19:01.705Z,36.4
2022-09-28T16:20:05.119Z,36.3
2022-09-28T16:21:17.245Z,36.4
2022-09-28T16:22:29.977Z,36.4
2022-09-28T16:23:42.125Z,36.4
2022-09-28T16:24:45.022Z,36.5
2022-09-28T16:25:57.372Z,36.5
2022-09-28T16:27:10.494Z,36.5
2022-09-28T16:28:22.630Z,36.6
2022-09-28T16:29:25.525Z,36.6
2022-09-28T16:30:37.676Z,36.6
2022-09-28T16:31:50.506Z,36.5
2022-09-28T16:33:02.652Z,36.6
2022-09-28T16:34:09.491Z,36.7
2022-09-28T16:35:13.638Z,36.7
2022-09-28T16:36:26.523Z,36.7
2022-09-28T16:37:38.620Z,36.7
2022-09-28T16:38:51.792Z,36.7
2022-09-28T16:39:54.025Z,36.7
2022-09-28T16:41:07.026Z,36.8
2022-09-28T16:42:19.518Z,36.8
2022-09-28T16:43:32.520Z,36.9
2022-09-28T16:44:34.780Z,36.9
2022-09-28T16:45:47.536Z,36.9
2022-09-28T16:46:59.617Z,36.9
2022-09-28T16:48:12.523Z,36.9
2022-09-28T16:49:14.780Z,37.0
2022-09-28T16:50:28.023Z,37.0
2022-09-28T16:51:40.177Z,37.0
2022-09-28T16:52:43.530Z,37.0
2022-09-28T16:53:55.688Z,37.0
2022-09-28T16:55:28.903Z,37.1
2022-09-28T16:56:12.006Z,37.1
2022-09-28T16:57:24.167Z,37.1
2022-09-28T16:58:37.016Z,37.1
2022-09-28T16:59:49.155Z,37.1
2022-09-28T17:00:52.087Z,37.1
2022-09-28T17:02:04.244Z,37.3
2022-09-28T17:03:17.060Z,37.5
2022-09-28T17:04:29.535Z,37.6
2022-09-28T17:05:32.490Z,37.8
2022-09-28T17:07:03.799Z,38.0
2022-09-28T17:07:57.065Z,38.1
2022-09-28T17:09:09.343Z,38.0
2022-09-28T17:10:12.622Z,38.0
2022-09-28T17:11:25.311Z,38.1
2022-09-28T17:12:38.502Z,38.1
2022-09-28T17:13:50.611Z,38.1
2022-09-28T17:14:53.509Z,38.2
2022-09-28T17:16:05.758Z,38.1
2022-09-28T17:17:18.656Z,38.3
2022-09-28T17:18:21.006Z,38.4
2022-09-28T17:19:34.007Z,38.3
2022-09-28T17:20:46.381Z,38.2
2022-09-28T17:21:59.552Z,38.2
2022-09-28T17:23:01.878Z,38.2
2022-09-28T17:24:15.089Z,38.2
2022-09-28T17:25:27.386Z,38.3
2022-09-28T17:26:30.545Z,38.5
2022-09-28T17:27:42.864Z,38.6
2022-09-28T17:28:56.059Z,38.9
2022-09-28T17:30:07.906Z,39.0
2022-09-28T17:31:11.119Z,39.2
2022-09-28T17:32:23.607Z,39.4
2022-09-28T17:33:36.532Z,39.6
2022-09-28T17:34:39.030Z,39.8
2022-09-28T17:35:52.075Z,39.9
2022-09-28T17:37:04.528Z,40.1
2022-09-28T17:38:17.519Z,40.2
2022-09-28T17:39:20.864Z,40.4
2022-09-28T17:40:34.058Z,40.7
2022-09-28T17:41:46.536Z,41.0
2022-09-28T17:42:49.512Z,41.0
2022-09-28T17:44:01.856Z,41.1
2022-09-28T17:45:15.006Z,41.2
2022-09-28T17:46:27.477Z,41.1
2022-09-28T17:47:34.165Z,41.0
2022-09-28T17:48:46.931Z,40.9
2022-09-28T17:49:50.036Z,40.8
2022-09-28T17:51:02.298Z,40.7
2022-09-28T17:52:15.535Z,40.7
2022-09-28T17:53:17.940Z,40.6
2022-09-28T17:54:31.060Z,40.4
2022-09-28T17:55:43.548Z,40.4
2022-09-28T17:56:56.566Z,40.4
2022-09-28T17:57:58.924Z,40.3
2022-09-28T17:59:12.049Z,40.2
2022-09-28T18:00:24.255Z,40.2
2022-09-28T18:01:37.099Z,40.1
2022-09-28T18:02:39.511Z,40.0
2022-09-28T18:03:52.560Z,40.0
2022-09-28T18:05:04.704Z,39.9
2022-09-28T18:06:08.031Z,39.9
2022-09-28T18:07:20.386Z,39.9
2022-09-28T18:08:33.509Z,39.9
2022-09-28T18:09:45.664Z,39.8
2022-09-28T18:10:48.530Z,39.7
2022-09-28T18:12:00.730Z,39.7
2022-09-28T18:13:13.526Z,39.7
2022-09-28T18:14:25.744Z,39.7
2022-09-28T18:15:28.595Z,39.8
2022-09-28T18:16:40.788Z,39.7
2022-09-28T18:17:53.516Z,39.7
2022-09-28T18:19:05.731Z,39.7
2022-09-28T18:20:09.046Z,39.8
2022-09-28T18:21:21.164Z,39.7
2022-09-28T18:22:34.104Z,39.7
2022-09-28T18:23:36.337Z,39.7
2022-09-28T18:24:49.548Z,39.7
2022-09-28T18:26:01.814Z,39.5
2022-09-28T18:27:15.016Z,39.4
2022-09-28T18:28:17.438Z,39.5
2022-09-28T18:29:33.364Z,39.7
2022-09-28T18:30:36.107Z,39.8
2022-09-28T18:31:49.040Z,40.0
2022-09-28T18:33:01.298Z,40.1
2022-09-28T18:34:14.586Z,40.4
2022-09-28T18:35:22.022Z,40.5
2022-09-28T18:36:26.544Z,40.7
2022-09-28T18:37:48.447Z,40.9
2022-09-28T18:38:51.540Z,41.1
2022-09-28T18:40:03.887Z,41.2
2022-09-28T18:41:07.028Z,41.3
2022-09-28T18:42:19.443Z,41.5
2022-09-28T18:43:35.652Z,41.6
2022-09-28T18:44:38.905Z,41.7
2022-09-28T18:45:52.032Z,41.9
2022-09-28T18:46:54.610Z,41.9
2022-09-28T18:48:08.065Z,42.1
2022-09-28T18:49:20.784Z,42.1
2022-09-28T18:50:34.050Z,42.3
2022-09-28T18:51:36.661Z,42.4
2022-09-28T18:52:50.041Z,42.4
2022-09-28T18:54:02.779Z,42.6
2022-09-28T18:55:06.059Z,42.6
2022-09-28T18:56:18.552Z,42.7
2022-09-28T18:57:32.112Z,42.8
2022-09-28T18:58:44.613Z,42.8
